createdAt,value
2022-12-23T00:00:40.952Z,100351.28
2022-12-23T00:03:08.720Z,100343.03
2022-12-23T00:05:40.360Z,100341.22
2022-12-23T00:08:07.915Z,100349.19
2022-12-23T00:10:38.587Z,100340.53
2022-12-23T00:13:24.532Z,100350.19
2022-12-23T00:15:51.496Z,100342.81
2022-12-23T00:18:18.456Z,100352.72
2022-12-23T00:20:45.447Z,100356.59
2022-12-23T00:23:13.493Z,100365.16
2022-12-23T00:25:44.618Z,100373.63
2022-12-23T00:28:19.480Z,100369.84
2022-12-23T00:30:59.583Z,100366.44
2022-12-23T00:33:33.345Z,100365.53
2022-12-23T00:36:00.995Z,100361.28
2022-12-23T00:38:47.109Z,100361.22
2022-12-23T00:41:37.297Z,100360.25
2022-12-23T00:44:05.351Z,100370.31
2022-12-23T00:46:32.572Z,100360.34
2022-12-23T00:49:18.409Z,100352.88
2022-12-23T00:51:45.410Z,100353.69
2022-12-23T00:54:12.349Z,100360.47
2022-12-23T00:56:39.400Z,100365.75
2022-12-23T00:59:06.462Z,100365.69
2022-12-23T01:01:52.268Z,100368.03
2022-12-23T01:04:38.761Z,100381.25
2022-12-23T01:07:06.505Z,100389.53
2022-12-23T01:09:34.168Z,100384.94
2022-12-23T01:12:01.338Z,100382.81
2022-12-23T01:14:29.312Z,100383.97
2022-12-23T01:16:56.411Z,100391.41
2022-12-23T01:19:23.531Z,100391.75
2022-12-23T01:21:50.557Z,100394.22
2022-12-23T01:24:19.717Z,100391.84
2022-12-23T01:26:46.780Z,100397.13
2022-12-23T01:29:14.755Z,100398.50
2022-12-23T01:31:41.909Z,100403.84
2022-12-23T01:34:09.033Z,100409.25
2022-12-23T01:36:36.449Z,100404.63
2022-12-23T01:39:03.556Z,100408.44
2022-12-23T01:41:52.105Z,100413.47
2022-12-23T01:44:50.320Z,100436.56
2022-12-23T01:47:39.471Z,100432.59
2022-12-23T01:50:15.413Z,100442.22
2022-12-23T01:52:48.813Z,100448.19
2022-12-23T01:55:21.773Z,100451.94
2022-12-23T01:57:49.429Z,100461.47
2022-12-23T02:00:35.406Z,100461.16
2022-12-23T02:03:21.005Z,100466.03
2022-12-23T02:05:48.877Z,100466.00
2022-12-23T02:08:35.753Z,100465.28
2022-12-23T02:11:31.704Z,100477.47
2022-12-23T02:14:51.013Z,100469.38
2022-12-23T02:17:41.333Z,100481.22
2022-12-23T02:21:11.153Z,100493.41
2022-12-23T02:24:17.710Z,100482.75
2022-12-23T02:27:09.662Z,100494.09
2022-12-23T02:30:14.039Z,100486.38
2022-12-23T02:33:05.470Z,100496.19
2022-12-23T02:36:06.833Z,100483.16
2022-12-23T02:38:59.975Z,100507.81
2022-12-23T02:41:42.636Z,100501.66
2022-12-23T02:44:21.286Z,100490.69
2022-12-23T02:46:55.888Z,100494.63
2022-12-23T02:49:36.637Z,100486.22
2022-12-23T02:52:12.077Z,100486.38
2022-12-23T02:54:48.977Z,100483.94
2022-12-23T02:57:21.408Z,100484.41
2022-12-23T02:59:51.415Z,100483.13
2022-12-23T03:02:19.665Z,100471.81
2022-12-23T03:04:46.863Z,100464.13
2022-12-23T03:07:21.375Z,100462.84
2022-12-23T03:10:29.301Z,100452.88
2022-12-23T03:13:37.443Z,100451.03
2022-12-23T03:16:46.750Z,100455.00
2022-12-23T03:19:19.542Z,100447.97
2022-12-23T03:22:13.650Z,100451.75
2022-12-23T03:25:20.378Z,100452.44
2022-12-23T03:28:13.805Z,100455.00
2022-12-23T03:30:44.715Z,100451.28
2022-12-23T03:33:22.848Z,100461.56
2022-12-23T03:35:56.948Z,100470.94
2022-12-23T03:38:25.633Z,100466.03
2022-12-23T03:41:05.051Z,100478.47
2022-12-23T03:43:50.759Z,100473.94
2022-12-23T03:46:37.234Z,100470.91
2022-12-23T03:49:10.207Z,100475.34
2022-12-23T03:52:01.973Z,100471.47
2022-12-23T03:54:38.973Z,100473.84
2022-12-23T03:57:08.106Z,100481.97
2022-12-23T03:59:39.994Z,100485.75
2022-12-23T04:02:33.541Z,100479.41
2022-12-23T04:05:19.891Z,100495.50
2022-12-23T04:08:14.619Z,100491.25
2022-12-23T04:10:41.727Z,100487.09
2022-12-23T04:13:09.008Z,100491.81
2022-12-23T04:15:43.622Z,100507.13
2022-12-23T04:18:11.492Z,100497.13
2022-12-23T04:20:38.836Z,100500.03
2022-12-23T04:23:05.939Z,100480.22
2022-12-23T04:25:32.969Z,100483.75
2022-12-23T04:28:00.296Z,100482.13
2022-12-23T04:30:33.636Z,100482.63
2022-12-23T04:33:01.276Z,100488.38
2022-12-23T04:35:28.290Z,100487.00
2022-12-23T04:37:55.368Z,100490.28
2022-12-23T04:40:22.645Z,100488.34
2022-12-23T04:42:49.736Z,100480.50
2022-12-23T04:45:16.813Z,100477.25
2022-12-23T04:47:43.884Z,100479.69
2022-12-23T04:50:15.656Z,100474.38
2022-12-23T04:52:44.190Z,100473.44
2022-12-23T04:55:13.570Z,100479.06
2022-12-23T04:57:40.625Z,100471.63
2022-12-23T05:00:08.570Z,100476.25
2022-12-23T05:02:35.739Z,100471.72
2022-12-23T05:05:02.839Z,100481.66
2022-12-23T05:07:30.049Z,100488.59
2022-12-23T05:10:01.700Z,100487.41
2022-12-23T05:12:32.180Z,100492.09
2022-12-23T05:15:01.119Z,100484.78
2022-12-23T05:17:28.065Z,100486.59
2022-12-23T05:19:55.036Z,100487.34
2022-12-23T05:22:22.081Z,100466.56
2022-12-23T05:24:49.033Z,100468.47
2022-12-23T05:27:15.947Z,100460.75
2022-12-23T05:29:42.930Z,100469.00
2022-12-23T05:32:10.044Z,100465.03
2022-12-23T05:34:39.759Z,100461.13
2022-12-23T05:37:06.962Z,100456.84
2022-12-23T05:39:33.941Z,100453.28
2022-12-23T05:42:00.865Z,100440.41
2022-12-23T05:44:27.822Z,100443.81
2022-12-23T05:46:54.799Z,100432.88
2022-12-23T05:49:22.620Z,100439.72
2022-12-23T05:51:49.706Z,100430.03
2022-12-23T05:54:16.646Z,100447.25
2022-12-23T05:56:43.598Z,100441.94
2022-12-23T05:59:11.148Z,100425.63
2022-12-23T06:01:38.210Z,100406.31
2022-12-23T06:04:05.422Z,100416.16
2022-12-23T06:06:32.529Z,100417.06
2022-12-23T06:09:00.265Z,100416.09
2022-12-23T06:11:31.061Z,100424.38
2022-12-23T06:13:58.006Z,100438.41
2022-12-23T06:16:25.109Z,100443.69
2022-12-23T06:18:57.719Z,100439.41
2022-12-23T06:21:25.655Z,100436.03
2022-12-23T06:23:52.937Z,100432.94
2022-12-23T06:26:20.509Z,100440.75
2022-12-23T06:28:47.628Z,100439.75
2022-12-23T06:31:14.706Z,100445.34
2022-12-23T06:33:41.915Z,100433.78
2022-12-23T06:36:11.777Z,100420.66
2022-12-23T06:38:38.852Z,100421.41
2022-12-23T06:41:05.914Z,100424.81
2022-12-23T06:43:32.858Z,100425.75
2022-12-23T06:45:59.867Z,100434.66
2022-12-23T06:48:26.865Z,100426.69
2022-12-23T06:50:53.942Z,100421.22
2022-12-23T06:53:21.048Z,100421.13
2022-12-23T06:55:48.010Z,100435.03
2022-12-23T06:58:14.967Z,100428.81
2022-12-23T07:00:42.112Z,100432.88
2022-12-23T07:03:18.114Z,100446.66
2022-12-23T07:05:52.032Z,100445.31
2022-12-23T07:08:19.795Z,100428.53
2022-12-23T07:10:47.168Z,100425.66
2022-12-23T07:13:14.190Z,100422.22
2022-12-23T07:15:41.281Z,100415.03
2022-12-23T07:18:08.261Z,100422.09
2022-12-23T07:20:35.377Z,100420.94
2022-12-23T07:23:02.355Z,100426.03
2022-12-23T07:25:32.341Z,100421.44
2022-12-23T07:27:59.436Z,100421.00
2022-12-23T07:30:26.491Z,100417.91
2022-12-23T07:32:53.813Z,100409.28
2022-12-23T07:35:20.817Z,100411.50
2022-12-23T07:37:55.778Z,100418.03
2022-12-23T07:40:23.841Z,100418.19
2022-12-23T07:42:54.904Z,100427.91
2022-12-23T07:45:22.055Z,100416.31
2022-12-23T07:47:56.658Z,100401.91
2022-12-23T07:50:25.153Z,100415.56
2022-12-23T07:52:53.448Z,100413.00
2022-12-23T07:55:21.040Z,100410.28
2022-12-23T07:57:52.561Z,100402.91
2022-12-23T08:00:20.813Z,100380.88
2022-12-23T08:02:48.445Z,100380.00
2022-12-23T08:05:16.462Z,100390.59
2022-12-23T08:07:45.252Z,100372.22
2022-12-23T08:10:13.114Z,100384.41
2022-12-23T08:12:40.103Z,100371.63
2022-12-23T08:15:08.518Z,100368.13
2022-12-23T08:17:35.560Z,100373.94
2022-12-23T08:20:02.505Z,100367.16
2022-12-23T08:22:32.408Z,100360.31
2022-12-23T08:24:59.780Z,100347.06
2022-12-23T08:27:27.022Z,100329.16
2022-12-23T08:29:54.026Z,100328.41
2022-12-23T08:32:21.012Z,100320.31
2022-12-23T08:34:47.990Z,100316.53
2022-12-23T08:37:15.103Z,100312.13
2022-12-23T08:39:43.698Z,100315.56
2022-12-23T08:42:10.689Z,100319.47
2022-12-23T08:44:37.722Z,100325.28
2022-12-23T08:47:04.681Z,100315.72
2022-12-23T08:49:31.706Z,100319.28
2022-12-23T08:51:58.690Z,100327.03
2022-12-23T08:54:25.705Z,100322.97
2022-12-23T08:56:52.719Z,100320.19
2022-12-23T08:59:20.109Z,100318.16
2022-12-23T09:01:48.258Z,100317.66
2022-12-23T09:04:15.747Z,100308.25
2022-12-23T09:06:43.403Z,100301.84
2022-12-23T09:09:12.996Z,100287.81
2022-12-23T09:11:40.121Z,100278.41
2022-12-23T09:14:10.170Z,100266.66
2022-12-23T09:16:38.043Z,100261.41
2022-12-23T09:19:05.410Z,100258.75
2022-12-23T09:21:32.512Z,100251.06
2022-12-23T09:23:59.450Z,100239.59
2022-12-23T09:26:29.625Z,100236.91
2022-12-23T09:28:58.016Z,100227.47
2022-12-23T09:31:32.270Z,100209.00
2022-12-23T09:46:28.907Z,100151.47
2022-12-23T09:49:13.324Z,100136.69
2022-12-23T09:51:40.486Z,100121.63
2022-12-23T09:54:28.932Z,100106.44
2022-12-23T09:57:05.088Z,100105.94
2022-12-23T10:00:15.935Z,100115.44
2022-12-23T10:03:24.033Z,100121.81
2022-12-23T10:06:13.499Z,100108.69
2022-12-23T10:08:45.793Z,100117.06
2022-12-23T10:11:53.380Z,100106.47
2022-12-23T10:14:25.532Z,100090.00
2022-12-23T10:17:00.998Z,100081.09
2022-12-23T10:19:42.627Z,100073.53
2022-12-23T10:22:16.484Z,100060.25
2022-12-23T10:24:46.497Z,100045.78
2022-12-23T10:27:35.755Z,100049.59
2022-12-23T10:33:28.602Z,100027.13
2022-12-23T10:36:29.848Z,100004.81
2022-12-23T10:39:25.156Z,100003.19
2022-12-23T10:42:36.270Z,99996.59
2022-12-23T10:45:30.505Z,99991.59
2022-12-23T10:49:09.217Z,99981.09
2022-12-23T10:51:55.113Z,99975.53
2022-12-23T10:54:31.097Z,99960.50
2022-12-23T10:56:58.224Z,99956.44
2022-12-23T10:59:29.348Z,99945.63
2022-12-23T11:02:14.616Z,99945.88
2022-12-23T11:04:47.957Z,99941.03
2022-12-23T11:10:22.139Z,99930.31
2022-12-23T11:12:52.637Z,99925.19
2022-12-23T11:15:39.557Z,99935.16
2022-12-23T11:18:16.993Z,99921.34
2022-12-23T11:20:48.538Z,99933.91
2022-12-23T11:23:26.900Z,99920.69
2022-12-23T11:26:14.001Z,99915.63
2022-12-23T11:28:51.014Z,99905.44
2022-12-23T11:31:35.224Z,99897.03
2022-12-23T11:34:12.102Z,99883.88
2022-12-23T11:36:39.307Z,99881.19
2022-12-23T11:39:26.218Z,99869.16
2022-12-23T11:42:06.285Z,99845.94
2022-12-23T11:44:51.374Z,99845.31
2022-12-23T11:47:23.960Z,99831.50
2022-12-23T11:49:54.410Z,99828.00
2022-12-23T11:52:24.979Z,99837.03
2022-12-23T11:55:01.859Z,99838.59
2022-12-23T11:57:48.386Z,99825.94
2022-12-23T12:00:39.317Z,99826.28
2022-12-23T12:03:12.593Z,99826.97
2022-12-23T12:06:04.866Z,99825.72
2022-12-23T12:08:38.712Z,99814.06
2022-12-23T12:11:13.960Z,99809.88
2022-12-23T12:13:49.454Z,99819.13
2022-12-23T12:16:31.551Z,99819.28
2022-12-23T12:19:15.070Z,99820.00
2022-12-23T12:21:42.070Z,99818.56
2022-12-23T12:24:20.651Z,99818.66
2022-12-23T12:26:53.515Z,99841.28
2022-12-23T12:29:49.281Z,99828.19
2022-12-23T12:33:11.835Z,99827.19
2022-12-23T12:35:53.989Z,99825.22
2022-12-23T12:38:32.260Z,99828.84
2022-12-23T12:41:42.668Z,99837.78
2022-12-23T12:44:46.071Z,99834.53
2022-12-23T12:47:55.972Z,99832.41
2022-12-23T12:50:30.247Z,99847.22
2022-12-23T12:53:06.319Z,99847.94
2022-12-23T12:55:39.715Z,99866.19
2022-12-23T12:58:20.192Z,99847.06
2022-12-23T13:01:37.137Z,99848.44
2022-12-23T13:04:07.058Z,99863.81
2022-12-23T13:06:42.855Z,99867.09
2022-12-23T13:09:46.966Z,99846.00
2022-12-23T13:12:34.390Z,99858.13
2022-12-23T13:15:13.040Z,99867.41
2022-12-23T13:18:13.719Z,99860.91
2022-12-23T13:20:50.513Z,99856.75
2022-12-23T13:23:45.225Z,99876.41
2022-12-23T13:26:53.605Z,99864.09
2022-12-23T13:29:53.076Z,99873.00
2022-12-23T13:32:45.176Z,99875.72
2022-12-23T13:35:45.892Z,99872.69
2022-12-23T13:38:45.535Z,99873.66
2022-12-23T13:41:24.344Z,99868.63
2022-12-23T13:43:59.635Z,99881.31
2022-12-23T13:46:59.444Z,99881.06
2022-12-23T13:50:02.344Z,99882.28
2022-12-23T13:53:05.933Z,99889.44
2022-12-23T13:56:18.574Z,99891.94
2022-12-23T13:58:49.826Z,99895.50
2022-12-23T14:01:17.647Z,99899.09
2022-12-23T14:03:48.161Z,99893.81
2022-12-23T14:06:24.032Z,99906.59
2022-12-23T14:08:54.429Z,99920.44
2022-12-23T14:11:27.971Z,99918.13
2022-12-23T14:14:01.536Z,99925.47
2022-12-23T14:16:52.880Z,99922.16
2022-12-23T14:20:03.900Z,99905.88
2022-12-23T14:22:58.788Z,99916.28
2022-12-23T14:26:04.025Z,99917.28
2022-12-23T14:29:12.367Z,99918.44
2022-12-23T14:31:45.208Z,99921.31
2022-12-23T14:34:18.129Z,99925.25
2022-12-23T14:37:28.770Z,99934.19
2022-12-23T14:39:55.883Z,99932.06
2022-12-23T14:42:42.331Z,99953.00
2022-12-23T14:45:35.855Z,99964.91
2022-12-23T14:48:37.132Z,99955.84
2022-12-23T14:51:10.142Z,99955.69
2022-12-23T14:53:52.654Z,99967.25
2022-12-23T14:56:19.670Z,99975.72
2022-12-23T14:58:52.767Z,99975.63
2022-12-23T15:01:50.728Z,99974.09
2022-12-23T15:04:46.775Z,99976.81
2022-12-23T15:07:25.028Z,99985.84
2022-12-23T15:10:00.764Z,99997.16
2022-12-23T15:12:41.387Z,99992.56
2022-12-23T15:15:25.284Z,100003.97
2022-12-23T15:18:10.153Z,100016.97
2022-12-23T15:20:37.146Z,100007.44
2022-12-23T15:23:12.223Z,100022.53
2022-12-23T15:25:48.552Z,100028.75
2022-12-23T15:28:23.118Z,100037.75
2022-12-23T15:30:54.790Z,100026.78
2022-12-23T15:36:30.767Z,100044.34
2022-12-23T15:39:00.253Z,100042.50
2022-12-23T15:41:28.025Z,100061.06
2022-12-23T15:44:01.765Z,100056.66
2022-12-23T15:46:31.813Z,100062.34
2022-12-23T15:48:58.939Z,100065.63
2022-12-23T15:54:36.845Z,100083.16
2022-12-23T15:57:05.481Z,100071.66
2022-12-23T15:59:37.888Z,100070.63
2022-12-23T16:05:33.531Z,100094.44
2022-12-23T16:08:16.392Z,100099.59
2022-12-23T16:10:57.250Z,100109.84
2022-12-23T16:13:25.633Z,100106.22
2022-12-23T16:15:52.729Z,100101.16
2022-12-23T16:18:32.791Z,100104.25
2022-12-23T16:21:03.844Z,100112.41
2022-12-23T16:23:35.051Z,100120.09
2022-12-23T16:26:03.725Z,100125.78
2022-12-23T16:28:45.361Z,100111.41
2022-12-23T16:31:17.549Z,100127.81
2022-12-23T16:33:48.529Z,100146.88
2022-12-23T16:36:26.158Z,100135.09
2022-12-23T16:39:21.788Z,100136.81
2022-12-23T16:41:49.909Z,100150.69
2022-12-23T16:44:17.077Z,100139.78
2022-12-23T16:46:47.849Z,100143.16
2022-12-23T16:49:21.623Z,100141.91
2022-12-23T16:51:49.053Z,100142.47
2022-12-23T16:54:19.791Z,100144.72
2022-12-23T16:56:47.006Z,100136.81
2022-12-23T16:59:14.746Z,100153.09
2022-12-23T17:01:51.161Z,100156.34
2022-12-23T17:04:18.166Z,100147.88
2022-12-23T17:06:46.644Z,100155.78
2022-12-23T17:09:13.757Z,100142.31
2022-12-23T17:11:45.198Z,100151.50
2022-12-23T17:14:23.276Z,100159.38
2022-12-23T17:16:51.180Z,100160.81
2022-12-23T17:19:27.767Z,100158.66
2022-12-23T17:22:01.465Z,100171.34
2022-12-23T17:24:28.532Z,100177.34
2022-12-23T17:26:57.071Z,100175.84
2022-12-23T17:29:24.362Z,100185.41
2022-12-23T17:31:52.158Z,100185.31
2022-12-23T17:34:22.777Z,100184.25
2022-12-23T17:36:51.235Z,100191.81
2022-12-23T17:39:19.679Z,100192.00
2022-12-23T17:41:46.823Z,100188.47
2022-12-23T17:44:16.412Z,100196.84
2022-12-23T17:46:45.357Z,100201.09
2022-12-23T17:49:12.502Z,100205.94
2022-12-23T17:51:41.440Z,100214.22
2022-12-23T17:54:27.069Z,100215.22
2022-12-23T17:56:54.014Z,100215.03
2022-12-23T17:59:21.558Z,100215.63
2022-12-23T18:01:48.761Z,100224.97
2022-12-23T18:04:15.775Z,100226.06
2022-12-23T18:06:43.980Z,100232.97
2022-12-23T18:09:10.953Z,100245.09
2022-12-23T18:11:44.799Z,100242.31
2022-12-23T18:14:19.942Z,100248.34
2022-12-23T18:16:47.003Z,100251.75
2022-12-23T18:19:20.296Z,100233.09
2022-12-23T18:21:48.198Z,100250.47
2022-12-23T18:24:15.374Z,100257.63
2022-12-23T18:26:42.427Z,100258.19
2022-12-23T18:29:09.392Z,100257.03
2022-12-23T18:31:39.744Z,100268.53
2022-12-23T18:34:17.576Z,100257.06
2022-12-23T18:36:44.772Z,100257.69
2022-12-23T18:39:11.758Z,100258.34
2022-12-23T18:41:39.000Z,100276.03
2022-12-23T18:44:05.998Z,100282.41
2022-12-23T18:46:33.026Z,100287.94
2022-12-23T18:49:00.108Z,100296.59
2022-12-23T18:51:27.135Z,100295.66
2022-12-23T18:53:54.120Z,100305.44
2022-12-23T18:56:21.381Z,100308.66
2022-12-23T18:58:48.691Z,100309.41
2022-12-23T19:01:17.701Z,100299.72
2022-12-23T19:03:45.456Z,100297.56
2022-12-23T19:06:15.230Z,100302.13
2022-12-23T19:08:44.533Z,100310.66
2022-12-23T19:11:16.242Z,100308.06
2022-12-23T19:13:43.376Z,100324.66
2022-12-23T19:16:20.238Z,100340.16
2022-12-23T19:18:48.973Z,100356.19
2022-12-23T19:21:18.060Z,100362.28
2022-12-23T19:23:45.162Z,100361.69
2022-12-23T19:26:15.093Z,100364.84
2022-12-23T19:28:42.595Z,100377.19
2022-12-23T19:31:12.125Z,100389.66
2022-12-23T19:33:45.310Z,100387.84
2022-12-23T19:36:15.570Z,100384.50
2022-12-23T19:38:42.776Z,100400.91
2022-12-23T19:41:10.058Z,100403.06
2022-12-23T19:43:38.941Z,100402.59
2022-12-23T19:46:09.958Z,100401.78
2022-12-23T19:48:38.100Z,100414.38
2022-12-23T19:51:12.230Z,100406.69
2022-12-23T19:53:41.530Z,100412.25
2022-12-23T19:56:13.720Z,100435.88
2022-12-23T19:58:43.569Z,100423.69
2022-12-23T20:01:16.316Z,100436.97
2022-12-23T20:03:45.326Z,100454.25
2022-12-23T20:06:18.413Z,100439.66
2022-12-23T20:08:45.826Z,100449.47
2022-12-23T20:11:25.781Z,100445.03
2022-12-23T20:13:55.094Z,100453.22
2022-12-23T20:16:23.346Z,100453.56
2022-12-23T20:18:50.516Z,100459.81
2022-12-23T20:21:18.085Z,100470.97
2022-12-23T20:23:45.598Z,100475.84
2022-12-23T20:26:14.229Z,100483.69
2022-12-23T20:28:41.473Z,100488.00
2022-12-23T20:31:19.795Z,100499.03
2022-12-23T20:33:48.804Z,100497.94
2022-12-23T20:36:19.648Z,100505.78
2022-12-23T20:38:47.814Z,100513.84
2022-12-23T20:41:19.189Z,100526.22
2022-12-23T20:43:57.044Z,100513.31
2022-12-23T20:46:30.288Z,100521.66
2022-12-23T20:48:57.332Z,100528.34
2022-12-23T20:51:25.702Z,100528.72
2022-12-23T20:53:56.087Z,100542.00
2022-12-23T20:56:27.498Z,100536.09
2022-12-23T20:58:58.563Z,100546.19
2022-12-23T21:01:29.232Z,100541.78
2022-12-23T21:03:58.952Z,100542.09
2022-12-23T21:06:26.965Z,100554.00
2022-12-23T21:08:56.491Z,100551.72
2022-12-23T21:11:23.858Z,100549.56
2022-12-23T21:13:54.026Z,100540.00
2022-12-23T21:16:21.271Z,100548.44
2022-12-23T21:18:53.322Z,100553.91
2022-12-23T21:21:23.793Z,100549.97
2022-12-23T21:23:50.763Z,100553.75
2022-12-23T21:26:21.584Z,100548.97
2022-12-23T21:28:50.930Z,100545.19
2022-12-23T21:31:22.522Z,100555.00
2022-12-23T21:33:51.236Z,100551.31
2022-12-23T21:36:22.511Z,100561.22
2022-12-23T21:38:50.448Z,100572.84
2022-12-23T21:41:21.637Z,100573.84
2022-12-23T21:43:50.043Z,100568.44
2022-12-23T21:46:20.694Z,100567.03
2022-12-23T21:48:48.923Z,100569.25
2022-12-23T21:51:23.350Z,100577.09
2022-12-23T21:53:54.032Z,100577.13
2022-12-23T21:56:31.750Z,100565.09
2022-12-23T21:59:10.102Z,100581.81
2022-12-23T22:01:37.125Z,100580.66
2022-12-23T22:04:04.299Z,100573.66
2022-12-23T22:06:39.048Z,100582.63
2022-12-23T22:09:07.597Z,100584.31
2022-12-23T22:11:36.878Z,100585.16
2022-12-23T22:14:07.188Z,100584.38
2022-12-23T22:16:35.798Z,100578.91
2022-12-23T22:19:04.198Z,100585.50
2022-12-23T22:21:33.049Z,100583.06
2022-12-23T22:24:00.657Z,100588.03
2022-12-23T22:26:31.746Z,100598.84
2022-12-23T22:29:02.439Z,100585.34
2022-12-23T22:31:47.243Z,100599.09
2022-12-23T22:34:20.705Z,100614.19
2022-12-23T22:36:48.513Z,100614.66
2022-12-23T22:39:21.209Z,100605.03
2022-12-23T22:41:52.396Z,100596.84
2022-12-23T22:44:20.590Z,100604.53
2022-12-23T22:46:48.421Z,100604.22
2022-12-23T22:49:16.791Z,100613.78
2022-12-23T22:51:44.408Z,100608.38
2022-12-23T22:54:11.584Z,100618.88
2022-12-23T22:56:38.662Z,100622.47
2022-12-23T22:59:06.021Z,100630.19
2022-12-23T23:01:36.438Z,100630.63
2022-12-23T23:04:04.585Z,100627.88
2022-12-23T23:06:38.805Z,100637.97
2022-12-23T23:09:07.840Z,100644.50
2022-12-23T23:11:35.158Z,100630.94
2022-12-23T23:14:02.163Z,100644.88
2022-12-23T23:16:29.191Z,100642.31
2022-12-23T23:18:56.288Z,100632.88
2022-12-23T23:21:23.392Z,100630.56
2022-12-23T23:23:50.471Z,100639.44
2022-12-23T23:26:18.495Z,100651.69
2022-12-23T23:28:46.441Z,100645.31
2022-12-23T23:34:00.938Z,100655.22
2022-12-23T23:36:28.010Z,100654.41
2022-12-23T23:38:54.993Z,100658.63
2022-12-23T23:41:23.554Z,100655.78
2022-12-23T23:43:53.829Z,100654.69
2022-12-23T23:46:20.870Z,100663.31
2022-12-23T23:48:48.112Z,100668.06
2022-12-23T23:51:15.124Z,100669.03
2022-12-23T23:53:42.059Z,100668.78
2022-12-23T23:56:09.469Z,100677.50
2022-12-23T23:58:37.550Z,100670.28
